»·PEaware :: SCX154 KSLC-KLAS

SCX154 :: KSLC-KLAS

FLIGHT INFORMATION

Flight Status: Arrived
Operator:
Sun Country Airlines
More flights by this operator :: More flights under this callsign
Pilot: Ben F. (13029)
Aircraft: BOEING 737-800
(B738)
More flights by this aircraft type
Origin: KSLC Salt Lake City Intl
United States
Destination: KLAS McCarran Intl
United States
More flights between these airports :: More routes between these airports
Route: +ARCHZ1 MLF MPIRE SITEE4
File this flight plan on PilotEdge
Remarks: RMK / SIMBRIEF
Altitude:
(Current/Filed)
30,000ft
Speed:
(Current/Filed)
416kts
Departed: 27-Mar-20 11:15 AM
Arrived: 27-Mar-20 12:15 PM
Distance/Time
Traveled:
319nm/1:00
Distance/Time
To Go:
Arrived

Flight Plot

Page will automatically refresh every two minutes.

Flight plan parsing failed; only flown route is shown


Map Options




Map Legend


Flown Route
Filed Route
Departure Airport
Arrival Airport
Navaid (VOR, NDB)
Fix

Horizontal Profiles

Position Reports

Time Latitude Longitude Heading Altitude Ground
Speed
27-Mar-20 10:39 40.788126 -111.977868 267 4237ft 0kts
27-Mar-20 10:40 40.788126 -111.977868 267 4237ft 0kts
27-Mar-20 10:41 40.788126 -111.977868 267 4237ft 0kts
27-Mar-20 10:42 40.788126 -111.977868 267 4237ft 0kts
27-Mar-20 10:43 40.788126 -111.977868 267 4237ft 0kts
27-Mar-20 10:44 40.788126 -111.977868 267 4237ft 0kts
27-Mar-20 10:45 40.788126 -111.977868 267 4237ft 0kts
27-Mar-20 10:46 40.788126 -111.977868 267 4237ft 0kts
27-Mar-20 10:47 40.788126 -111.977868 267 4237ft 0kts
27-Mar-20 10:48 40.788126 -111.977868 267 4237ft 0kts
27-Mar-20 10:49 40.788126 -111.977868 267 4237ft 0kts
27-Mar-20 10:50 40.788126 -111.977868 267 4237ft 0kts
27-Mar-20 10:51 40.788126 -111.977868 267 4237ft 0kts
27-Mar-20 10:52 40.788126 -111.977868 267 4237ft 0kts
27-Mar-20 10:53 40.788126 -111.977868 267 4237ft 0kts
27-Mar-20 10:54 40.788126 -111.977868 267 4237ft 0kts
27-Mar-20 10:55 40.788126 -111.977868 267 4237ft 0kts
27-Mar-20 10:56 40.788126 -111.977868 267 4237ft 0kts
27-Mar-20 10:57 40.788126 -111.977868 267 4237ft 0kts
27-Mar-20 10:58 40.788126 -111.977868 267 4237ft 0kts
27-Mar-20 10:59 40.788126 -111.977868 267 4237ft 0kts
27-Mar-20 11:00 40.788126 -111.977868 267 4237ft 0kts
27-Mar-20 11:01 40.788126 -111.977868 267 4237ft 0kts
27-Mar-20 11:02 40.788126 -111.977868 267 4237ft 0kts
27-Mar-20 11:03 40.788126 -111.977868 267 4237ft 0kts
27-Mar-20 11:04 40.788126 -111.977868 267 4237ft 0kts
27-Mar-20 11:05 40.788136 -111.977476 268 4238ft 2kts
27-Mar-20 11:06 40.788412 -111.976922 190 4238ft 2kts
27-Mar-20 11:07 40.788572 -111.976921 173 4237ft 0kts
27-Mar-20 11:08 40.788572 -111.976921 173 4237ft 0kts
27-Mar-20 11:09 40.787359 -111.976778 175 4237ft 17kts
27-Mar-20 11:10 40.778603 -111.975355 168 4237ft 38kts
27-Mar-20 11:11 40.774769 -111.974738 155 4237ft 0kts
27-Mar-20 11:12 40.774685 -111.974682 148 4237ft 3kts
27-Mar-20 11:13 40.775482 -111.973242 356 4237ft 4kts
27-Mar-20 11:14 40.804347 -111.977326 343 4924ft 169kts
27-Mar-20 11:15 40.835380 -112.018700 306 7270ft 153kts
27-Mar-20 11:16 40.864537 -112.072776 306 8915ft 212kts
27-Mar-20 11:17 40.872494 -112.149452 228 9993ft 268kts
27-Mar-20 11:18 40.813858 -112.212100 220 12050ft 275kts
27-Mar-20 11:19 40.750762 -112.276217 216 14128ft 315kts
27-Mar-20 11:20 40.658386 -112.295392 187 16248ft 352kts
27-Mar-20 11:21 40.560407 -112.313455 196 18736ft 361kts
27-Mar-20 11:22 40.463426 -112.353170 199 21047ft 371kts
27-Mar-20 11:23 40.364021 -112.393768 199 23133ft 381kts
27-Mar-20 11:24 40.261794 -112.435394 199 25035ft 391kts
27-Mar-20 11:25 40.160416 -112.482629 209 26807ft 395kts
27-Mar-20 11:26 40.097333 -112.527547 210 28143ft 392kts
27-Mar-20 11:28 39.897135 -112.668132 209 29986ft 381kts
27-Mar-20 11:29 39.803737 -112.733346 209 29982ft 383kts
27-Mar-20 11:30 39.710005 -112.798559 208 29967ft 383kts
27-Mar-20 11:31 39.606198 -112.830432 188 29959ft 391kts
27-Mar-20 11:32 39.494155 -112.846970 188 29956ft 421kts
27-Mar-20 11:33 39.374316 -112.864813 188 29955ft 448kts
27-Mar-20 11:34 39.249820 -112.883267 188 29954ft 450kts
27-Mar-20 11:35 39.125460 -112.901615 188 29956ft 451kts
27-Mar-20 11:36 39.001083 -112.919934 188 29959ft 452kts
27-Mar-20 11:37 38.876418 -112.938229 189 29963ft 448kts
27-Mar-20 11:38 38.752810 -112.956316 189 29963ft 449kts
27-Mar-20 11:39 38.628649 -112.974412 189 29963ft 450kts
27-Mar-20 11:40 38.503936 -112.992528 189 29963ft 452kts
27-Mar-20 11:41 38.379480 -113.011952 195 29964ft 450kts
27-Mar-20 11:42 38.264640 -113.071966 208 29963ft 448kts
27-Mar-20 11:43 38.152514 -113.141052 208 29960ft 448kts
27-Mar-20 11:44 38.042959 -113.208099 208 29950ft 448kts
27-Mar-20 11:45 37.930514 -113.276689 208 29944ft 448kts
27-Mar-20 11:46 37.817767 -113.345227 208 29943ft 448kts
27-Mar-20 11:47 37.705110 -113.413478 208 29943ft 448kts
27-Mar-20 11:48 37.592279 -113.481603 208 29943ft 448kts
27-Mar-20 11:49 37.479824 -113.548977 208 29980ft 448kts
27-Mar-20 11:50 37.367410 -113.616372 208 29997ft 448kts
27-Mar-20 11:51 37.269686 -113.674736 207 29993ft 410kts
27-Mar-20 11:52 37.170724 -113.733776 207 30004ft 397kts
27-Mar-20 11:53 37.071324 -113.792821 208 28992ft 391kts
27-Mar-20 11:54 36.974224 -113.850356 209 27012ft 383kts
27-Mar-20 11:55 36.879134 -113.906545 209 25021ft 375kts
27-Mar-20 11:57 36.785631 -113.961643 209 23072ft 368kts
27-Mar-20 11:58 36.693851 -114.015581 209 21160ft 362kts
27-Mar-20 11:59 36.603646 -114.069083 214 19206ft 357kts
27-Mar-20 12:00 36.539615 -114.155209 241 17420ft 336kts
27-Mar-20 12:01 36.489985 -114.252281 242 15668ft 330kts
27-Mar-20 12:02 36.441187 -114.347516 242 13926ft 325kts
27-Mar-20 12:03 36.392783 -114.441702 242 12182ft 318kts
27-Mar-20 12:04 36.347358 -114.529815 242 11532ft 303kts
27-Mar-20 12:05 36.300542 -114.614687 228 10274ft 302kts
27-Mar-20 12:06 36.225354 -114.661905 200 9495ft 304kts
27-Mar-20 12:07 36.146632 -114.695841 200 8707ft 297kts
27-Mar-20 12:08 36.082116 -114.743646 248 8032ft 246kts
27-Mar-20 12:09 36.073539 -114.826675 272 6746ft 240kts
27-Mar-20 12:10 36.073388 -114.901426 273 5438ft 191kts
27-Mar-20 12:11 36.073697 -114.960057 272 4477ft 157kts
27-Mar-20 12:12 36.073728 -115.011608 272 3826ft 147kts
27-Mar-20 12:13 36.073709 -115.062867 272 3171ft 146kts
27-Mar-20 12:14 36.073492 -115.111991 276 2382ft 139kts
27-Mar-20 12:15 36.073762 -115.147610 284 2121ft 29kts
27-Mar-20 12:15 36.074660 -115.150498 303 2121ft 0kts
27-Mar-20 12:16 36.076195 -115.151882 336 2121ft 21kts
27-Mar-20 12:17 36.078279 -115.153044 352 2121ft 15kts
27-Mar-20 12:19 36.078252 -115.140700 89 2121ft 41kts
27-Mar-20 12:20 36.080623 -115.137087 42 2121ft 9kts
27-Mar-20 12:20 36.080847 -115.136813 45 2121ft 0kts
27-Mar-20 12:22 36.080847 -115.136813 45 2121ft 0kts
27-Mar-20 12:23 36.080847 -115.136813 45 2121ft 0kts
27-Mar-20 12:24 36.080847 -115.136813 45 2121ft 0kts
27-Mar-20 12:25 36.080847 -115.136813 45 2121ft 0kts
27-Mar-20 12:26 36.080847 -115.136813 45 2121ft 0kts
27-Mar-20 12:27 36.080847 -115.136813 45 2121ft 0kts
27-Mar-20 12:28 36.080847 -115.136813 45 2121ft 0kts
27-Mar-20 12:29 36.080847 -115.136813 45 2121ft 0kts

Navigation Log

Ident Type
Flight plan parsing failed, navigation log unavailable